createdAt,value
2022-11-13T00:00:13.316Z,2.33
2022-11-13T00:02:40.281Z,2.20
2022-11-13T00:05:07.423Z,2.63
2022-11-13T00:07:34.464Z,2.13
2022-11-13T00:10:01.181Z,2.03
2022-11-13T00:12:29.399Z,2.08
2022-11-13T00:14:56.261Z,2.13
2022-11-13T00:17:23.082Z,2.33
2022-11-13T00:19:49.855Z,2.25
2022-11-13T00:22:16.653Z,2.42
2022-11-13T00:24:43.546Z,3.20
2022-11-13T00:27:10.407Z,2.35
2022-11-13T00:29:37.187Z,2.60
2022-11-13T00:32:04.291Z,2.20
2022-11-13T00:34:47.194Z,2.22
2022-11-13T00:37:15.122Z,2.53
2022-11-13T00:39:41.877Z,2.50
2022-11-13T00:42:08.758Z,2.13
2022-11-13T00:44:35.711Z,2.03
2022-11-13T00:47:02.485Z,2.80
2022-11-13T00:49:29.476Z,2.47
2022-11-13T00:51:56.425Z,2.30
2022-11-13T00:54:23.259Z,2.17
2022-11-13T00:56:50.121Z,2.45
2022-11-13T00:59:17.019Z,2.47
2022-11-13T01:01:43.863Z,2.50
2022-11-13T01:04:10.917Z,2.35
2022-11-13T01:06:38.053Z,2.42
2022-11-13T01:09:04.895Z,2.50
2022-11-13T01:11:31.631Z,2.53
2022-11-13T01:13:58.437Z,2.33
2022-11-13T01:16:26.134Z,2.10
2022-11-13T01:18:55.992Z,2.65
2022-11-13T01:21:24.650Z,2.42
2022-11-13T01:23:51.492Z,2.22
2022-11-13T01:26:26.077Z,2.40
2022-11-13T01:28:52.964Z,2.33
2022-11-13T01:31:21.660Z,1.85
2022-11-13T01:33:48.772Z,2.15
2022-11-13T01:36:17.590Z,2.58
2022-11-13T01:38:44.408Z,2.53
2022-11-13T01:41:23.905Z,2.75
2022-11-13T01:43:51.550Z,2.10
2022-11-13T01:46:22.403Z,2.58
2022-11-13T01:49:08.155Z,2.50
2022-11-13T01:51:40.757Z,2.63
2022-11-13T01:54:13.342Z,1.98
2022-11-13T01:56:40.055Z,2.00
2022-11-13T01:59:13.173Z,2.22
2022-11-13T02:01:39.885Z,2.17
2022-11-13T02:04:06.770Z,1.98
2022-11-13T02:06:45.781Z,2.17
2022-11-13T02:09:13.290Z,2.05
2022-11-13T02:11:40.045Z,1.67
2022-11-13T02:14:06.879Z,1.60
2022-11-13T02:16:33.650Z,1.60
2022-11-13T02:19:01.627Z,1.80
2022-11-13T02:21:52.878Z,1.60
2022-11-13T02:24:33.364Z,1.55
2022-11-13T02:27:06.256Z,1.60
2022-11-13T02:29:33.071Z,1.52
2022-11-13T02:31:59.932Z,1.70
2022-11-13T02:34:26.639Z,1.67
2022-11-13T02:36:53.390Z,1.75
2022-11-13T02:39:20.135Z,1.80
2022-11-13T02:41:46.997Z,1.73
2022-11-13T02:44:13.771Z,1.58
2022-11-13T02:46:40.584Z,1.70
2022-11-13T02:49:07.859Z,1.55
2022-11-13T02:51:34.815Z,1.80
2022-11-13T02:54:01.727Z,1.50
2022-11-13T02:56:28.694Z,1.70
2022-11-13T02:58:55.744Z,1.50
2022-11-13T03:01:22.774Z,1.80
2022-11-13T03:03:57.384Z,1.50
2022-11-13T03:06:25.142Z,1.60
2022-11-13T03:08:52.051Z,1.25
2022-11-13T03:11:18.842Z,1.55
2022-11-13T03:13:45.615Z,1.45
2022-11-13T03:16:14.215Z,1.90
2022-11-13T03:18:41.300Z,1.52
2022-11-13T03:21:09.698Z,1.58
2022-11-13T03:23:36.686Z,1.42
2022-11-13T03:26:05.436Z,1.73
2022-11-13T03:28:32.631Z,1.90
2022-11-13T03:30:59.540Z,1.67
2022-11-13T03:33:26.381Z,1.50
2022-11-13T03:35:53.411Z,1.70
2022-11-13T03:38:20.253Z,1.55
2022-11-13T03:40:47.223Z,1.60
2022-11-13T03:43:14.063Z,1.52
2022-11-13T03:45:40.881Z,1.08
2022-11-13T03:48:07.734Z,1.70
2022-11-13T03:50:34.522Z,1.42
2022-11-13T03:53:01.496Z,1.33
2022-11-13T03:55:28.264Z,1.30
2022-11-13T03:57:55.754Z,1.30
2022-11-13T04:00:23.859Z,1.70
2022-11-13T04:02:50.626Z,1.20
2022-11-13T04:05:22.503Z,1.50
2022-11-13T04:07:49.558Z,1.60
2022-11-13T04:10:16.549Z,1.48
2022-11-13T04:12:43.372Z,1.75
2022-11-13T04:15:10.486Z,1.70
2022-11-13T04:17:37.308Z,1.20
2022-11-13T04:20:04.454Z,1.35
2022-11-13T04:22:31.317Z,1.70
2022-11-13T04:24:58.053Z,1.42
2022-11-13T04:27:24.931Z,1.48
2022-11-13T04:29:51.743Z,1.60
2022-11-13T04:32:18.507Z,1.30
2022-11-13T04:34:45.290Z,1.52
2022-11-13T04:37:12.001Z,1.50
2022-11-13T04:39:38.800Z,2.00
2022-11-13T04:42:24.002Z,1.60
2022-11-13T04:44:50.770Z,1.70
2022-11-13T04:47:17.558Z,1.90
2022-11-13T04:49:44.340Z,1.88
2022-11-13T04:52:11.227Z,1.52
2022-11-13T04:54:38.001Z,1.67
2022-11-13T04:57:04.882Z,2.25
2022-11-13T04:59:31.679Z,2.35
2022-11-13T05:01:58.555Z,2.03
2022-11-13T05:04:25.367Z,2.10
2022-11-13T05:06:52.184Z,1.90
2022-11-13T05:09:19.104Z,1.92
2022-11-13T05:11:45.869Z,2.08
2022-11-13T05:14:12.972Z,2.20
2022-11-13T05:16:39.863Z,1.80
2022-11-13T05:19:07.119Z,2.22
2022-11-13T05:21:37.847Z,1.95
2022-11-13T05:24:05.065Z,1.67
2022-11-13T05:26:32.069Z,1.83
2022-11-13T05:29:02.001Z,2.17
2022-11-13T05:31:28.995Z,2.00
2022-11-13T05:33:55.897Z,1.98
2022-11-13T05:36:23.020Z,1.92
2022-11-13T05:38:49.931Z,2.03
2022-11-13T05:41:19.088Z,2.13
2022-11-13T05:43:48.517Z,1.75
2022-11-13T05:46:17.233Z,2.00
2022-11-13T05:48:44.155Z,1.92
2022-11-13T05:51:20.979Z,2.13
2022-11-13T05:53:47.796Z,1.92
2022-11-13T05:56:18.530Z,1.58
2022-11-13T05:58:45.443Z,2.03
2022-11-13T06:01:23.018Z,1.50
2022-11-13T06:03:49.993Z,1.60
2022-11-13T06:06:18.812Z,1.50
2022-11-13T06:08:45.816Z,1.33
2022-11-13T06:11:14.428Z,1.73
2022-11-13T06:13:41.196Z,2.00
2022-11-13T06:16:19.152Z,1.38
2022-11-13T06:18:46.307Z,2.13
2022-11-13T06:21:18.703Z,1.52
2022-11-13T06:23:45.656Z,2.03
2022-11-13T06:26:14.751Z,1.83
2022-11-13T06:28:41.831Z,1.80
2022-11-13T06:31:11.130Z,1.67
2022-11-13T06:33:38.125Z,2.03
2022-11-13T06:36:06.159Z,1.85
2022-11-13T06:38:33.785Z,1.95
2022-11-13T06:41:01.048Z,1.33
2022-11-13T06:43:28.204Z,1.30
2022-11-13T06:45:55.435Z,1.10
2022-11-13T06:48:22.532Z,1.40
2022-11-13T06:50:49.705Z,1.20
2022-11-13T06:53:16.853Z,1.40
2022-11-13T06:55:45.494Z,1.35
2022-11-13T06:58:12.740Z,1.30
2022-11-13T07:00:40.314Z,1.02
2022-11-13T07:03:07.256Z,1.05
2022-11-13T07:05:36.731Z,1.42
2022-11-13T07:08:03.673Z,1.10
2022-11-13T07:10:30.646Z,1.40
2022-11-13T07:13:00.282Z,1.55
2022-11-13T07:15:27.721Z,1.40
2022-11-13T07:17:54.659Z,1.27
2022-11-13T07:20:21.629Z,1.10
2022-11-13T07:22:48.607Z,1.65
2022-11-13T07:25:15.662Z,1.13
2022-11-13T07:27:48.032Z,1.38
2022-11-13T07:30:15.883Z,1.13
2022-11-13T07:32:42.791Z,1.10
2022-11-13T07:35:09.968Z,1.00
2022-11-13T07:37:36.942Z,1.10
2022-11-13T07:40:04.401Z,1.13
2022-11-13T07:42:31.339Z,1.17
2022-11-13T07:44:58.155Z,1.20
2022-11-13T07:47:24.923Z,1.13
2022-11-13T07:49:51.709Z,1.20
2022-11-13T07:52:18.460Z,1.17
2022-11-13T07:54:45.236Z,1.15
2022-11-13T07:57:12.112Z,1.45
2022-11-13T07:59:39.120Z,1.30
2022-11-13T08:02:06.498Z,1.00
2022-11-13T08:04:33.423Z,1.52
2022-11-13T08:07:02.542Z,1.38
2022-11-13T08:09:29.387Z,1.27
2022-11-13T08:11:56.314Z,1.25
2022-11-13T08:14:23.210Z,1.20
2022-11-13T08:16:50.062Z,1.40
2022-11-13T08:19:16.942Z,1.30
2022-11-13T08:21:43.987Z,1.40
2022-11-13T08:24:10.922Z,1.00
2022-11-13T08:26:38.789Z,1.55
2022-11-13T08:29:05.787Z,1.52
2022-11-13T08:31:32.788Z,1.33
2022-11-13T08:34:00.614Z,1.50
2022-11-13T08:36:27.551Z,1.50
2022-11-13T08:38:54.387Z,1.48
2022-11-13T08:41:21.120Z,1.27
2022-11-13T08:43:47.903Z,1.27
2022-11-13T08:46:14.769Z,1.15
2022-11-13T08:48:41.610Z,1.02
2022-11-13T08:51:08.378Z,1.40
2022-11-13T08:53:35.176Z,1.00
2022-11-13T08:56:02.627Z,1.00
2022-11-13T08:58:29.745Z,1.30
2022-11-13T09:01:01.113Z,1.75
2022-11-13T09:03:28.078Z,1.17
2022-11-13T09:05:54.956Z,1.15
2022-11-13T09:08:21.924Z,1.48
2022-11-13T09:10:48.773Z,1.25
2022-11-13T09:13:15.722Z,1.38
2022-11-13T09:15:42.647Z,1.20
2022-11-13T09:18:13.265Z,1.38
2022-11-13T09:20:40.059Z,1.17
2022-11-13T09:23:07.759Z,0.90
2022-11-13T09:25:37.630Z,1.00
2022-11-13T09:28:05.167Z,1.10
2022-11-13T09:30:32.050Z,1.20
2022-11-13T09:33:00.022Z,1.40
2022-11-13T09:35:36.721Z,1.70
2022-11-13T09:38:10.468Z,1.50
2022-11-13T09:40:46.541Z,1.00
2022-11-13T09:43:58.209Z,1.30
2022-11-13T09:46:53.276Z,1.13
2022-11-13T09:49:32.090Z,1.02
2022-11-13T09:52:20.324Z,0.88
2022-11-13T09:54:47.119Z,0.95
2022-11-13T09:57:38.261Z,0.93
2022-11-13T10:00:06.392Z,0.80
2022-11-13T10:03:01.128Z,0.70
2022-11-13T10:05:46.963Z,0.80
2022-11-13T10:08:21.984Z,0.80
2022-11-13T10:10:58.119Z,0.93
2022-11-13T10:13:30.196Z,0.70
2022-11-13T10:16:15.583Z,0.88
2022-11-13T10:18:42.543Z,0.75
2022-11-13T10:21:29.374Z,0.73
2022-11-13T10:23:57.323Z,0.90
2022-11-13T10:26:25.525Z,0.70
2022-11-13T10:29:06.071Z,0.60
2022-11-13T10:32:18.949Z,0.80
2022-11-13T10:34:50.261Z,0.65
2022-11-13T10:37:40.968Z,0.80
2022-11-13T10:40:08.187Z,0.88
2022-11-13T10:42:42.113Z,1.00
2022-11-13T10:45:19.259Z,0.75
2022-11-13T10:48:03.583Z,0.88
2022-11-13T10:50:31.573Z,0.98
2022-11-13T10:52:59.716Z,0.70
2022-11-13T10:55:28.220Z,0.95
2022-11-13T10:57:56.834Z,1.17
2022-11-13T11:00:27.882Z,1.00
2022-11-13T11:02:54.831Z,1.20
2022-11-13T11:05:23.994Z,1.00
2022-11-13T11:07:50.950Z,1.02
2022-11-13T11:10:34.569Z,1.25
2022-11-13T11:13:09.777Z,1.23
2022-11-13T11:15:39.874Z,1.15
2022-11-13T11:18:45.291Z,1.20
2022-11-13T11:21:18.544Z,0.90
2022-11-13T11:23:59.138Z,1.23
2022-11-13T11:26:43.886Z,1.00
2022-11-13T11:29:18.734Z,1.45
2022-11-13T11:31:53.558Z,1.48
2022-11-13T11:34:34.044Z,1.10
2022-11-13T11:37:31.546Z,1.30
2022-11-13T11:40:04.363Z,1.45
2022-11-13T11:42:41.758Z,1.83
2022-11-13T11:45:21.307Z,1.75
2022-11-13T11:47:48.283Z,2.20
2022-11-13T11:50:17.147Z,1.75
2022-11-13T11:52:47.353Z,1.70
2022-11-13T11:55:51.672Z,1.70
2022-11-13T11:58:31.926Z,1.50
2022-11-13T12:01:04.926Z,1.52
2022-11-13T12:03:52.707Z,1.20
2022-11-13T12:06:30.085Z,1.48
2022-11-13T12:09:15.708Z,1.90
2022-11-13T12:11:48.836Z,1.90
2022-11-13T12:17:16.551Z,2.22
2022-11-13T12:19:58.249Z,1.80
2022-11-13T12:22:30.801Z,1.83
2022-11-13T12:25:13.982Z,2.38
2022-11-13T12:27:45.406Z,1.80
2022-11-13T12:30:42.773Z,1.45
2022-11-13T12:33:12.313Z,1.65
2022-11-13T12:35:39.227Z,2.17
2022-11-13T12:38:32.173Z,1.90
2022-11-13T12:41:08.043Z,1.95
2022-11-13T12:44:00.227Z,2.25
2022-11-13T12:46:34.694Z,2.00
2022-11-13T12:49:01.447Z,2.65
2022-11-13T12:51:38.450Z,2.40
2022-11-13T12:54:05.392Z,2.40
2022-11-13T12:56:33.426Z,2.38
2022-11-13T12:59:29.868Z,2.20
2022-11-13T13:02:21.305Z,3.28
2022-11-13T13:05:07.551Z,3.13
2022-11-13T13:08:12.085Z,3.55
2022-11-13T13:11:27.545Z,3.58
2022-11-13T13:14:23.280Z,3.50
2022-11-13T13:16:50.131Z,3.00
2022-11-13T13:19:31.033Z,3.08
2022-11-13T13:21:57.828Z,2.78
2022-11-13T13:24:29.182Z,3.00
2022-11-13T13:26:56.003Z,2.80
2022-11-13T13:29:24.710Z,2.80
2022-11-13T13:32:00.580Z,2.58
2022-11-13T13:34:46.437Z,2.60
2022-11-13T13:37:31.652Z,1.90
2022-11-13T13:40:20.374Z,2.13
2022-11-13T13:43:18.505Z,2.38
2022-11-13T13:46:01.986Z,2.40
2022-11-13T13:48:29.655Z,2.33
2022-11-13T13:50:56.880Z,2.13
2022-11-13T13:53:34.344Z,2.42
2022-11-13T13:56:02.253Z,2.45
2022-11-13T13:58:31.391Z,2.65
2022-11-13T14:01:18.328Z,2.75
2022-11-13T14:03:45.892Z,2.67
2022-11-13T14:06:21.916Z,2.55
2022-11-13T14:08:48.842Z,2.28
2022-11-13T14:11:26.856Z,2.42
2022-11-13T14:13:53.677Z,2.45
2022-11-13T14:16:20.563Z,2.90
2022-11-13T14:18:47.565Z,2.15
2022-11-13T14:21:21.057Z,3.08
2022-11-13T14:23:49.680Z,2.17
2022-11-13T14:26:19.358Z,2.50
2022-11-13T14:28:54.110Z,2.20
2022-11-13T14:31:24.737Z,2.50
2022-11-13T14:33:51.594Z,2.55
2022-11-13T14:36:29.878Z,2.13
2022-11-13T14:38:56.676Z,2.80
2022-11-13T14:41:26.519Z,3.22
2022-11-13T14:43:54.382Z,3.00
2022-11-13T14:46:38.233Z,3.20
2022-11-13T14:49:11.375Z,3.08
2022-11-13T14:51:38.965Z,3.35
2022-11-13T14:54:08.943Z,3.10
2022-11-13T14:56:41.206Z,4.18
2022-11-13T14:59:09.613Z,3.58
2022-11-13T15:01:36.635Z,3.80
2022-11-13T15:04:03.674Z,3.28
2022-11-13T15:06:40.420Z,3.67
2022-11-13T15:09:11.685Z,4.50
2022-11-13T15:11:40.452Z,4.30
2022-11-13T15:14:16.669Z,4.97
2022-11-13T15:16:49.982Z,4.57
2022-11-13T15:19:36.428Z,4.28
2022-11-13T15:22:25.993Z,4.65
2022-11-13T15:24:50.314Z,4.80
2022-11-13T15:27:17.367Z,4.10
2022-11-13T15:29:47.200Z,4.20
2022-11-13T15:32:15.627Z,4.35
2022-11-13T15:34:42.665Z,4.45
2022-11-13T15:37:13.619Z,4.13
2022-11-13T15:39:40.585Z,4.68
2022-11-13T15:42:10.879Z,4.90
2022-11-13T15:44:37.800Z,4.70
2022-11-13T15:47:08.982Z,4.80
2022-11-13T15:49:37.212Z,4.50
2022-11-13T15:52:04.550Z,4.32
2022-11-13T15:54:35.152Z,5.82
2022-11-13T15:57:01.975Z,5.22
2022-11-13T15:59:28.834Z,4.82
2022-11-13T16:01:58.388Z,4.57
2022-11-13T16:04:30.147Z,4.40
2022-11-13T16:07:09.681Z,4.05
2022-11-13T16:09:36.530Z,4.25
2022-11-13T16:12:03.541Z,4.22
2022-11-13T16:14:30.481Z,4.93
2022-11-13T16:16:58.483Z,5.82
2022-11-13T16:19:25.718Z,4.78
2022-11-13T16:21:54.228Z,4.05
2022-11-13T16:24:24.283Z,4.57
2022-11-13T16:26:55.932Z,4.47
2022-11-13T16:29:24.310Z,3.53
2022-11-13T16:31:51.460Z,3.67
2022-11-13T16:34:18.259Z,3.95
2022-11-13T16:36:45.055Z,3.58
2022-11-13T16:39:16.095Z,3.92
2022-11-13T16:41:43.243Z,3.83
2022-11-13T16:44:10.047Z,3.90
2022-11-13T16:46:38.861Z,4.03
2022-11-13T16:49:05.732Z,4.45
2022-11-13T16:51:32.590Z,4.35
2022-11-13T16:53:59.328Z,4.40
2022-11-13T16:56:29.269Z,4.38
2022-11-13T16:58:56.699Z,4.72
2022-11-13T17:01:23.607Z,5.15
2022-11-13T17:03:50.662Z,5.70
2022-11-13T17:06:26.558Z,6.20
2022-11-13T17:08:54.852Z,5.95
2022-11-13T17:11:22.242Z,4.80
2022-11-13T17:13:50.912Z,5.15
2022-11-13T17:16:18.076Z,4.68
2022-11-13T17:18:45.039Z,4.63
2022-11-13T17:21:11.979Z,3.97
2022-11-13T17:23:38.839Z,4.05
2022-11-13T17:26:06.015Z,4.20
2022-11-13T17:28:32.902Z,3.95
2022-11-13T17:31:03.918Z,3.85
2022-11-13T17:33:31.469Z,4.13
2022-11-13T17:35:58.662Z,3.22
2022-11-13T17:38:25.891Z,3.70
2022-11-13T17:40:53.486Z,3.95
2022-11-13T17:43:21.137Z,3.30
2022-11-13T17:45:51.365Z,3.55
2022-11-13T17:48:18.961Z,3.30
2022-11-13T17:50:46.005Z,2.97
2022-11-13T17:53:13.622Z,3.60
2022-11-13T17:55:40.371Z,3.90
2022-11-13T17:58:07.135Z,3.72
2022-11-13T18:00:33.891Z,3.13
2022-11-13T18:03:00.739Z,2.75
2022-11-13T18:05:27.529Z,3.05
2022-11-13T18:07:54.400Z,3.20
2022-11-13T18:10:21.388Z,2.95
2022-11-13T18:12:48.210Z,2.78
2022-11-13T18:15:15.665Z,2.97
2022-11-13T18:17:42.728Z,2.92
2022-11-13T18:20:09.879Z,3.03
2022-11-13T18:22:36.742Z,2.90
2022-11-13T18:25:03.561Z,2.67
2022-11-13T18:27:30.397Z,2.63
2022-11-13T18:29:57.190Z,2.90
2022-11-13T18:32:23.956Z,2.95
2022-11-13T18:34:50.762Z,3.00
2022-11-13T18:37:17.532Z,3.33
2022-11-13T18:39:44.550Z,3.45
2022-11-13T18:42:11.370Z,3.65
2022-11-13T18:44:38.199Z,3.10
2022-11-13T18:47:05.060Z,2.83
2022-11-13T18:49:31.958Z,3.28
2022-11-13T18:51:58.746Z,3.58
2022-11-13T18:54:25.542Z,3.53
2022-11-13T18:56:52.474Z,3.15
2022-11-13T18:59:19.251Z,3.08
2022-11-13T19:01:47.439Z,3.30
2022-11-13T19:04:22.809Z,2.42
2022-11-13T19:06:50.822Z,2.70
2022-11-13T19:09:17.862Z,2.30
2022-11-13T19:11:45.223Z,2.83
2022-11-13T19:14:16.168Z,3.20
2022-11-13T19:16:43.043Z,2.97
2022-11-13T19:19:17.974Z,3.53
2022-11-13T19:21:45.193Z,3.00
2022-11-13T19:24:13.206Z,2.92
2022-11-13T19:26:41.860Z,2.83
2022-11-13T19:29:08.695Z,2.97
2022-11-13T19:31:35.641Z,3.00
2022-11-13T19:34:03.758Z,2.72
2022-11-13T19:36:31.267Z,3.00
2022-11-13T19:38:58.330Z,3.25
2022-11-13T19:41:25.975Z,2.88
2022-11-13T19:43:53.052Z,2.63
2022-11-13T19:46:20.123Z,2.78
2022-11-13T19:48:47.861Z,2.92
2022-11-13T19:51:22.781Z,2.63
2022-11-13T19:53:53.820Z,2.83
2022-11-13T19:56:21.652Z,2.67
2022-11-13T19:58:49.371Z,3.15
2022-11-13T20:01:20.983Z,3.10
2022-11-13T20:03:48.051Z,3.00
2022-11-13T20:06:16.712Z,2.85
2022-11-13T20:08:43.499Z,2.80
2022-11-13T20:11:11.797Z,2.92
2022-11-13T20:13:38.945Z,3.05
2022-11-13T20:16:10.779Z,2.70
2022-11-13T20:18:37.571Z,2.67
2022-11-13T20:21:04.538Z,3.13
2022-11-13T20:23:31.479Z,3.10
2022-11-13T20:26:03.050Z,2.88
2022-11-13T20:28:30.269Z,2.92
2022-11-13T20:31:08.381Z,2.33
2022-11-13T20:33:35.397Z,2.30
2022-11-13T20:36:02.799Z,2.47
2022-11-13T20:38:29.995Z,2.88
2022-11-13T20:40:57.256Z,2.30
2022-11-13T20:43:24.181Z,2.55
2022-11-13T20:45:51.096Z,2.97
2022-11-13T20:48:17.974Z,3.13
2022-11-13T20:50:44.933Z,2.75
2022-11-13T20:53:14.321Z,3.47
2022-11-13T20:55:41.243Z,2.47
2022-11-13T20:58:08.030Z,2.85
2022-11-13T21:00:34.904Z,2.75
2022-11-13T21:03:01.690Z,2.60
2022-11-13T21:05:28.543Z,2.65
2022-11-13T21:07:55.427Z,2.72
2022-11-13T21:10:22.369Z,3.63
2022-11-13T21:12:49.150Z,2.67
2022-11-13T21:15:15.968Z,2.92
2022-11-13T21:17:42.786Z,2.88
2022-11-13T21:20:10.169Z,2.83
2022-11-13T21:22:36.981Z,2.70
2022-11-13T21:25:04.254Z,2.58
2022-11-13T21:27:31.156Z,2.20
2022-11-13T21:29:58.150Z,2.58
2022-11-13T21:32:25.055Z,2.35
2022-11-13T21:34:54.001Z,2.10
2022-11-13T21:37:20.849Z,2.38
2022-11-13T21:39:47.711Z,2.15
2022-11-13T21:42:14.479Z,2.30
2022-11-13T21:44:41.348Z,2.08
2022-11-13T21:47:12.414Z,2.10
2022-11-13T21:49:39.358Z,1.95
2022-11-13T21:52:06.335Z,2.35
2022-11-13T21:54:33.177Z,2.35
2022-11-13T21:57:00.023Z,2.70
2022-11-13T21:59:26.854Z,2.65
2022-11-13T22:01:53.789Z,2.30
2022-11-13T22:04:20.601Z,2.50
2022-11-13T22:06:48.381Z,2.33
2022-11-13T22:09:20.246Z,2.72
2022-11-13T22:11:47.238Z,2.50
2022-11-13T22:14:14.070Z,2.67
2022-11-13T22:16:42.493Z,2.80
2022-11-13T22:19:15.468Z,1.90
2022-11-13T22:21:42.502Z,2.28
2022-11-13T22:24:09.396Z,2.15
2022-11-13T22:26:37.912Z,2.55
2022-11-13T22:29:04.946Z,2.63
2022-11-13T22:31:32.226Z,2.80
2022-11-13T22:33:59.162Z,2.60
2022-11-13T22:36:29.853Z,2.53
2022-11-13T22:38:56.904Z,2.70
2022-11-13T22:41:25.630Z,2.30
2022-11-13T22:43:55.113Z,2.20
2022-11-13T22:46:24.240Z,2.70
2022-11-13T22:48:51.831Z,2.72
2022-11-13T22:51:21.158Z,3.00
2022-11-13T22:53:52.902Z,2.15
2022-11-13T22:56:20.175Z,2.50
2022-11-13T22:58:46.955Z,2.88
2022-11-13T23:01:21.612Z,3.00
2022-11-13T23:03:49.138Z,3.17
2022-11-13T23:06:20.874Z,3.28
2022-11-13T23:08:47.822Z,2.35
2022-11-13T23:11:16.609Z,2.80
2022-11-13T23:13:51.701Z,2.85
2022-11-13T23:16:18.875Z,2.60
2022-11-13T23:18:45.754Z,2.50
2022-11-13T23:21:12.971Z,2.75
2022-11-13T23:23:39.855Z,2.55
2022-11-13T23:26:07.070Z,2.45
2022-11-13T23:28:33.994Z,2.97
2022-11-13T23:31:00.746Z,2.38
2022-11-13T23:33:27.654Z,2.47
2022-11-13T23:35:54.778Z,2.47
2022-11-13T23:38:21.687Z,2.97
2022-11-13T23:40:53.639Z,2.40
2022-11-13T23:43:20.715Z,2.42
2022-11-13T23:45:47.501Z,2.67
2022-11-13T23:48:14.493Z,2.40
2022-11-13T23:50:41.349Z,2.60
2022-11-13T23:53:08.224Z,2.85
2022-11-13T23:55:35.080Z,2.65
2022-11-13T23:58:03.233Z,2.70
